Time;durP1;ratioP1;P1;durP2;ratioP2;P2;SDS_P1;SDS_P2;PMS_P1;PMS_P2;Temp;Humidity;BMP_temperature;BMP_pressure;BME280_temperature;BME280_humidity;BME280_pressure;Samples;Min_cycle;Max_cycle;Signal;HPM_P1;HPM_P2
2022/10/18 00:01:41;;;;;;;2.87;2.63;;;16.30;74.70;16.50;97407.00;;;;5047812;28;20219;-81
2022/10/18 00:04:19;;;;;;;2.67;2.47;;;16.30;74.80;16.50;97400.00;;;;5050278;28;20255;-81
2022/10/18 00:06:51;;;;;;;3.50;3.13;;;16.30;74.50;16.50;97403.00;;;;5054880;28;20205;-81
2022/10/18 00:09:27;;;;;;;3.40;3.07;;;16.30;74.50;16.50;97402.00;;;;5050407;28;20225;-81
2022/10/18 00:12:03;;;;;;;3.73;2.77;;;16.30;74.60;16.50;97405.00;;;;5055959;28;20247;-81
2022/10/18 00:14:43;;;;;;;2.77;2.57;;;16.30;74.50;16.40;97398.00;;;;5053423;28;20201;-81
2022/10/18 00:17:19;;;;;;;4.03;3.10;;;16.30;75.30;16.40;97409.00;;;;5050322;28;20200;-81
2022/10/18 00:19:52;;;;;;;2.70;2.50;;;16.20;74.40;16.40;97401.00;;;;5049274;28;20864;-81
2022/10/18 00:22:25;;;;;;;3.20;2.90;;;16.20;74.40;16.40;97403.00;;;;5055345;28;20220;-81
2022/10/18 00:24:56;;;;;;;2.20;2.07;;;16.20;75.20;16.30;97397.00;;;;5049835;28;20200;-81
2022/10/18 00:27:26;;;;;;;4.50;2.60;;;16.10;74.40;16.30;97402.00;;;;5048327;28;20275;-81
2022/10/18 00:30:02;;;;;;;3.43;2.80;;;16.10;74.40;16.30;97399.00;;;;5052420;28;20221;-81
2022/10/18 00:32:31;;;;;;;2.63;2.43;;;16.10;74.40;16.20;97392.00;;;;5049927;28;20220;-81
2022/10/18 00:35:03;;;;;;;2.90;2.70;;;16.10;74.40;16.20;97388.00;;;;5054217;28;20207;-81
2022/10/18 00:37:32;;;;;;;2.63;2.43;;;16.00;74.40;16.20;97396.00;;;;5051907;28;20215;-81
2022/10/18 00:39:59;;;;;;;4.17;3.00;;;16.00;74.60;16.20;97398.00;;;;5051650;28;20653;-81
2022/10/18 00:42:31;;;;;;;3.67;2.47;;;16.00;74.50;16.20;97397.00;;;;5052130;28;20216;-81
2022/10/18 00:45:24;;;;;;;4.23;2.50;;;16.00;74.60;16.20;97396.00;;;;5053265;28;20201;-81
2022/10/18 00:47:59;;;;;;;2.87;2.60;;;16.00;74.70;16.20;97390.00;;;;5046435;28;20383;-81
2022/10/18 00:50:35;;;;;;;4.53;2.20;;;16.00;74.60;16.10;97392.00;;;;5050988;28;20204;-81
2022/10/18 00:53:12;;;;;;;3.07;2.43;;;15.90;74.60;16.10;97388.00;;;;5048468;28;20247;-82
2022/10/18 00:55:40;;;;;;;2.73;2.23;;;15.90;74.70;16.10;97383.00;;;;5053087;28;20834;-81
2022/10/18 00:58:08;;;;;;;3.10;2.80;;;15.90;74.70;16.10;97385.00;;;;5049687;28;20295;-81
2022/10/18 01:00:39;;;;;;;3.00;2.50;;;15.90;74.70;16.10;97387.00;;;;5052925;28;20230;-81
2022/10/18 01:03:08;;;;;;;2.33;2.10;;;15.90;74.70;16.10;97384.00;;;;5050049;28;20251;-81
2022/10/18 01:05:41;;;;;;;2.80;2.10;;;15.80;74.80;16.00;97375.00;;;;5045137;28;20231;-81
2022/10/18 01:08:43;;;;;;;3.00;2.03;;;15.80;75.00;16.00;97378.00;;;;5047744;28;20575;-81
2022/10/18 01:11:49;;;;;;;2.03;1.90;;;15.80;75.10;16.00;97376.00;;;;5049355;28;20699;-81
2022/10/18 01:14:51;;;;;;;2.40;2.20;;;15.80;75.10;16.00;97377.00;;;;5052581;28;20287;-81
2022/10/18 01:17:33;;;;;;;2.57;2.33;;;15.80;75.00;16.00;97379.00;;;;5047553;28;20314;-81
2022/10/18 01:21:08;;;;;;;2.00;1.90;;;15.80;75.00;16.00;97375.00;;;;5047705;28;20197;-81
2022/10/18 01:24:24;;;;;;;2.30;2.00;;;15.80;75.40;15.90;97372.00;;;;5047660;28;20763;-81
2022/10/18 01:27:26;;;;;;;2.37;2.17;;;15.80;75.10;15.90;97378.00;;;;5041970;28;20626;-81
2022/10/18 01:30:30;;;;;;;2.97;2.30;;;15.70;74.90;15.90;97376.00;;;;5044394;28;20212;-81
2022/10/18 01:33:13;;;;;;;2.60;2.37;;;15.70;74.70;15.80;97386.00;;;;5051596;28;20311;-81
2022/10/18 01:35:49;;;;;;;4.40;2.10;;;15.70;74.60;15.80;97381.00;;;;5051678;28;20232;-81
2022/10/18 01:38:26;;;;;;;2.77;2.20;;;15.70;74.60;15.80;97384.00;;;;5050883;28;20629;-81
2022/10/18 01:41:01;;;;;;;2.80;2.33;;;15.60;74.50;15.80;97384.00;;;;5053078;28;20563;-81
2022/10/18 01:43:39;;;;;;;2.20;1.97;;;15.60;74.50;15.80;97384.00;;;;5054136;28;20228;-81
2022/10/18 01:46:16;;;;;;;2.83;2.00;;;15.60;74.60;15.70;97379.00;;;;5051346;28;20247;-81
2022/10/18 01:48:49;;;;;;;4.00;2.10;;;15.60;74.60;15.70;97377.00;;;;5051254;28;20196;-81
2022/10/18 01:51:19;;;;;;;1.83;1.73;;;15.60;74.60;15.70;97383.00;;;;5047971;28;20307;-81
2022/10/18 01:53:49;;;;;;;2.27;2.07;;;15.50;74.60;15.70;97388.00;;;;5053063;28;20216;-81
2022/10/18 01:56:42;;;;;;;2.37;2.03;;;15.50;74.60;15.60;97379.00;;;;5055375;28;20271;-82
2022/10/18 01:59:36;;;;;;;3.47;1.80;;;15.50;74.70;15.60;97387.00;;;;5054480;28;20239;-83
2022/10/18 02:02:20;;;;;;;3.27;2.00;;;15.50;74.60;15.60;97389.00;;;;5046728;28;20641;-82
2022/10/18 02:04:57;;;;;;;2.37;2.17;;;15.40;74.60;15.50;97389.00;;;;5050699;28;20371;-80
2022/10/18 02:07:41;;;;;;;5.40;2.20;;;15.40;74.60;15.50;97389.00;;;;5049269;28;20200;-81
2022/10/18 02:10:15;;;;;;;2.53;1.87;;;15.40;74.60;15.50;97391.00;;;;5048274;28;20201;-81
2022/10/18 02:12:46;;;;;;;2.30;2.10;;;15.40;74.50;15.50;97384.00;;;;5045041;28;20266;-82
2022/10/18 02:15:19;;;;;;;2.30;2.00;;;15.40;74.50;15.50;97382.00;;;;5047235;28;20723;-80
2022/10/18 02:17:47;;;;;;;4.30;2.20;;;15.30;74.40;15.50;97382.00;;;;5048318;28;20201;-81
2022/10/18 02:20:20;;;;;;;3.10;2.07;;;15.30;74.50;15.40;97383.00;;;;5045300;28;20205;-81
2022/10/18 02:22:51;;;;;;;2.20;2.03;;;15.30;74.60;15.40;97384.00;;;;5044871;28;20716;-81
2022/10/18 02:25:24;;;;;;;4.13;2.10;;;15.30;74.50;15.40;97381.00;;;;5049516;28;20242;-82
2022/10/18 02:27:52;;;;;;;3.67;2.20;;;15.20;74.50;15.40;97377.00;;;;5052784;28;20722;-81
2022/10/18 02:30:24;;;;;;;8.50;1.93;;;15.30;74.70;15.40;97380.00;;;;5051561;28;20196;-81
2022/10/18 02:33:00;;;;;;;2.00;1.90;;;15.20;74.80;15.40;97379.00;;;;5050224;28;20232;-82
2022/10/18 02:35:35;;;;;;;2.03;1.93;;;15.20;74.80;15.40;97371.00;;;;5052618;28;20231;-83
2022/10/18 02:38:05;;;;;;;4.23;1.90;;;15.20;74.80;15.40;97375.00;;;;5051762;28;20255;-81
2022/10/18 02:40:33;;;;;;;2.17;2.00;;;15.20;74.90;15.30;97375.00;;;;5045418;28;20193;-81
2022/10/18 02:43:10;;;;;;;2.20;1.90;;;15.20;75.80;15.30;97373.00;;;;5054918;28;20250;-82
2022/10/18 02:45:42;;;;;;;2.30;2.07;;;15.20;75.20;15.30;97376.00;;;;5050665;28;20220;-82
2022/10/18 02:48:10;;;;;;;1.83;1.73;;;15.20;75.10;15.30;97366.00;;;;5054249;28;20645;-83
2022/10/18 02:50:38;;;;;;;2.30;2.10;;;15.20;75.00;15.30;97377.00;;;;5052036;28;20188;-83
2022/10/18 02:53:06;;;;;;;2.60;2.20;;;15.20;75.00;15.30;97380.00;;;;5054466;28;20316;-81
2022/10/18 02:55:33;;;;;;;1.93;1.83;;;15.10;74.90;15.30;97384.00;;;;5048047;28;20646;-80
2022/10/18 02:58:00;;;;;;;2.50;2.20;;;15.10;74.80;15.30;97379.00;;;;5053011;28;20193;-82
2022/10/18 03:00:27;;;;;;;3.27;2.20;;;15.10;74.80;15.20;97373.00;;;;5046315;28;20224;-81
2022/10/18 03:02:54;;;;;;;2.40;1.83;;;15.10;74.80;15.20;97373.00;;;;5054124;28;20239;-82
2022/10/18 03:05:21;;;;;;;1.87;1.63;;;15.10;74.80;15.20;97383.00;;;;5053159;28;20251;-82
2022/10/18 03:07:50;;;;;;;1.70;1.60;;;15.10;74.90;15.20;97391.00;;;;5055578;28;20197;-81
2022/10/18 03:10:17;;;;;;;1.93;1.73;;;15.00;74.90;15.20;97389.00;;;;5049576;28;20199;-82
2022/10/18 03:12:44;;;;;;;2.10;1.90;;;15.00;74.80;15.20;97387.00;;;;5049794;28;20654;-82
2022/10/18 03:15:11;;;;;;;2.50;1.80;;;15.00;74.80;15.20;97373.00;;;;5048546;28;20236;-82
2022/10/18 03:17:38;;;;;;;3.33;2.23;;;15.00;74.90;15.10;97373.00;;;;5046794;28;20670;-83
2022/10/18 03:20:07;;;;;;;1.70;1.60;;;15.00;74.90;15.10;97373.00;;;;5044995;28;20216;-81
2022/10/18 03:22:34;;;;;;;1.67;1.57;;;15.00;74.80;15.10;97376.00;;;;5053515;28;20282;-81
2022/10/18 03:25:03;;;;;;;1.60;1.50;;;15.00;74.90;15.10;97384.00;;;;5052372;28;20236;-81
2022/10/18 03:27:30;;;;;;;3.00;1.80;;;14.90;74.80;15.10;97393.00;;;;5050697;28;20223;-81
2022/10/18 03:29:58;;;;;;;1.90;1.80;;;14.90;74.90;15.10;97385.00;;;;5053966;28;20257;-81
2022/10/18 03:32:25;;;;;;;1.83;1.70;;;14.90;74.90;15.00;97378.00;;;;5054486;28;20320;-83
2022/10/18 03:34:52;;;;;;;1.83;1.50;;;14.90;75.00;15.10;97385.00;;;;5053842;28;20701;-81
2022/10/18 03:37:19;;;;;;;1.90;1.80;;;14.90;75.00;15.00;97388.00;;;;5054262;28;20344;-82
2022/10/18 03:39:46;;;;;;;1.73;1.30;;;14.90;75.00;15.00;97394.00;;;;5058930;28;20225;-81
2022/10/18 03:42:15;;;;;;;2.10;1.67;;;14.80;74.90;15.00;97394.00;;;;5060063;28;20224;-82
2022/10/18 03:44:42;;;;;;;1.60;1.50;;;14.80;75.00;15.00;97392.00;;;;5057013;28;20221;-82
2022/10/18 03:47:09;;;;;;;1.77;1.60;;;14.80;75.00;15.00;97396.00;;;;5053840;28;20193;-82
2022/10/18 03:49:36;;;;;;;1.30;1.20;;;14.80;75.00;15.00;97393.00;;;;5055650;28;20285;-81
2022/10/18 03:52:03;;;;;;;2.97;1.83;;;14.80;75.00;15.00;97388.00;;;;5054719;28;20645;-82
2022/10/18 03:54:31;;;;;;;2.40;2.20;;;14.80;75.00;14.90;97390.00;;;;5078173;23;20274;-86
2022/10/18 03:56:58;;;;;;;1.60;1.50;;;14.80;75.00;14.90;97396.00;;;;5044505;28;20282;-86
2022/10/18 03:59:27;;;;;;;1.63;1.53;;;14.80;75.00;14.90;97397.00;;;;5050843;28;20666;-86
2022/10/18 04:01:57;;;;;;;1.57;1.47;;;14.80;75.00;14.90;97395.00;;;;5044397;28;20224;-86
2022/10/18 04:04:24;;;;;;;3.40;1.40;;;14.80;75.10;14.90;97385.00;;;;5043662;28;20232;-86
2022/10/18 04:06:51;;;;;;;2.40;1.40;;;14.80;75.10;14.90;97383.00;;;;5054076;28;20226;-86
2022/10/18 04:09:19;;;;;;;1.73;1.63;;;14.80;75.20;14.90;97390.00;;;;5052102;28;22028;-87
2022/10/18 04:11:46;;;;;;;2.30;1.73;;;14.70;75.20;14.90;97396.00;;;;5054435;28;20225;-86
2022/10/18 04:14:13;;;;;;;1.80;1.70;;;14.70;75.30;14.90;97390.00;;;;5076702;22;20255;-87
2022/10/18 04:16:41;;;;;;;3.30;2.10;;;14.70;75.60;14.90;97396.00;;;;5061892;28;20684;-87
2022/10/18 04:19:09;;;;;;;1.80;1.70;;;14.70;75.80;14.90;97390.00;;;;5058678;28;20197;-87
2022/10/18 04:21:36;;;;;;;3.97;2.20;;;14.70;76.20;14.90;97398.00;;;;5048516;28;20203;-87
2022/10/18 04:24:03;;;;;;;1.73;1.63;;;14.70;76.40;15.00;97399.00;;;;5039474;28;20213;-86
2022/10/18 04:26:31;;;;;;;2.17;2.07;;;14.70;76.40;15.00;97395.00;;;;5030471;28;20273;-86
2022/10/18 04:28:58;;;;;;;1.90;1.80;;;14.80;76.50;15.00;97390.00;;;;5038612;28;20280;-87
2022/10/18 04:31:25;;;;;;;2.07;1.80;;;14.80;76.60;15.00;97409.00;;;;5035293;28;20718;-87
2022/10/18 04:33:54;;;;;;;2.23;1.60;;;14.80;77.40;15.10;97403.00;;;;5034428;28;20757;-88
2022/10/18 04:36:21;;;;;;;3.30;2.03;;;14.80;76.70;15.10;97416.00;;;;5031946;28;20269;-87
2022/10/18 04:38:48;;;;;;;4.10;2.10;;;14.80;76.80;15.10;97406.00;;;;5034039;28;20193;-86
2022/10/18 04:41:15;;;;;;;3.93;2.27;;;14.80;76.90;15.10;97394.00;;;;5027065;28;20226;-87
2022/10/18 04:43:42;;;;;;;2.77;2.40;;;14.80;77.00;15.10;97402.00;;;;5029383;28;20227;-87
2022/10/18 04:46:10;;;;;;;1.93;1.83;;;14.80;77.10;15.10;97393.00;;;;5031399;28;20312;-87
2022/10/18 04:48:37;;;;;;;2.63;1.97;;;14.90;77.20;15.10;97390.00;;;;5033691;28;20595;-87
2022/10/18 04:51:05;;;;;;;2.20;2.10;;;14.90;77.20;15.10;97400.00;;;;5033978;28;20672;-87
2022/10/18 04:53:33;;;;;;;2.03;1.83;;;14.90;77.10;15.10;97393.00;;;;5033413;28;20304;-87
2022/10/18 04:56:00;;;;;;;2.23;2.03;;;14.90;77.00;15.10;97398.00;;;;5031919;28;20742;-87
2022/10/18 04:58:27;;;;;;;2.37;2.17;;;14.90;77.00;15.20;97396.00;;;;5026574;28;20193;-87
2022/10/18 05:00:54;;;;;;;2.50;2.30;;;14.90;77.00;15.20;97404.00;;;;5034314;28;20208;-88
2022/10/18 05:03:21;;;;;;;3.37;3.07;;;14.90;77.00;15.20;97396.00;;;;5032701;28;20320;-86
2022/10/18 05:05:48;;;;;;;2.83;2.50;;;14.90;77.00;15.20;97386.00;;;;5029270;28;20207;-85
2022/10/18 05:08:17;;;;;;;2.17;2.07;;;15.00;77.10;15.30;97387.00;;;;5022363;28;20255;-85
2022/10/18 05:10:44;;;;;;;1.80;1.70;;;15.00;77.10;15.30;97379.00;;;;5031317;28;20739;-85
2022/10/18 05:13:11;;;;;;;1.97;1.87;;;15.00;77.10;15.30;97378.00;;;;5031030;28;20323;-85
2022/10/18 05:15:38;;;;;;;2.50;2.30;;;15.00;77.10;15.40;97387.00;;;;5032380;28;20288;-84
2022/10/18 05:18:05;;;;;;;2.00;1.90;;;15.00;77.10;15.40;97388.00;;;;5032603;28;20200;-84
2022/10/18 05:20:32;;;;;;;3.70;2.20;;;15.10;77.10;15.40;97378.00;;;;5033122;28;20202;-82
2022/10/18 05:22:59;;;;;;;2.60;2.40;;;15.10;77.10;15.40;97371.00;;;;5028562;28;20221;-83
2022/10/18 05:25:28;;;;;;;2.27;2.07;;;15.10;77.10;15.50;97372.00;;;;5013379;28;20224;-83
2022/10/18 05:27:55;;;;;;;3.73;1.97;;;15.10;77.20;15.50;97376.00;;;;5024708;28;20251;-83
2022/10/18 05:30:22;;;;;;;2.10;2.00;;;15.10;77.20;15.50;97383.00;;;;5033297;28;20284;-83
2022/10/18 05:32:49;;;;;;;2.87;2.60;;;15.10;77.90;15.50;97383.00;;;;5032368;28;20229;-84
2022/10/18 05:35:17;;;;;;;1.97;1.70;;;15.20;78.00;15.50;97384.00;;;;5012835;28;20193;-83
2022/10/18 05:37:44;;;;;;;2.33;2.13;;;15.20;77.30;15.60;97387.00;;;;5013443;28;20205;-84
2022/10/18 05:40:12;;;;;;;3.97;2.43;;;15.20;77.30;15.60;97387.00;;;;5021673;28;20673;-83
2022/10/18 05:42:40;;;;;;;2.93;2.73;;;15.20;77.30;15.60;97390.00;;;;5024364;28;20221;-83
2022/10/18 05:45:09;;;;;;;4.90;4.40;;;15.20;77.40;15.60;97381.00;;;;5032713;28;20292;-83
2022/10/18 05:47:36;;;;;;;5.67;5.00;;;15.20;77.30;15.70;97389.00;;;;5031131;28;20734;-83
2022/10/18 05:50:03;;;;;;;5.60;4.57;;;15.30;77.40;15.70;97392.00;;;;5022753;28;20305;-82
2022/10/18 05:52:31;;;;;;;4.93;4.53;;;15.30;77.30;15.70;97396.00;;;;5022933;28;20229;-83
2022/10/18 05:55:00;;;;;;;5.50;3.70;;;15.30;77.30;15.70;97392.00;;;;5021905;28;20202;-83
2022/10/18 05:57:27;;;;;;;5.43;4.53;;;15.30;77.30;15.70;97391.00;;;;5020222;28;20277;-83
2022/10/18 05:59:56;;;;;;;4.80;4.40;;;15.30;77.30;15.70;97383.00;;;;5022656;28;20288;-83
2022/10/18 06:02:23;;;;;;;3.73;3.43;;;15.40;77.50;15.80;97395.00;;;;5022163;28;20201;-83
2022/10/18 06:04:50;;;;;;;4.93;4.43;;;15.40;77.50;15.80;97394.00;;;;5022888;28;20640;-83
2022/10/18 06:07:17;;;;;;;4.10;3.70;;;15.40;77.60;15.80;97400.00;;;;5021981;28;20203;-83
2022/10/18 06:09:44;;;;;;;3.80;3.10;;;15.40;77.70;15.80;97394.00;;;;5023314;28;20293;-83
2022/10/18 06:12:11;;;;;;;3.53;3.23;;;15.40;77.80;15.90;97408.00;;;;5021553;28;20283;-83
2022/10/18 06:14:38;;;;;;;3.60;2.80;;;15.50;77.90;15.90;97405.00;;;;5022073;28;20317;-83
2022/10/18 06:17:06;;;;;;;2.83;2.63;;;15.50;78.10;16.00;97397.00;;;;5021510;28;20197;-83
2022/10/18 06:19:33;;;;;;;3.60;2.27;;;15.50;78.20;16.00;97406.00;;;;5022511;28;20206;-83
2022/10/18 06:22:00;;;;;;;3.67;2.13;;;15.60;78.40;16.10;97407.00;;;;5021010;28;20287;-83
2022/10/18 06:24:27;;;;;;;4.00;2.50;;;15.60;78.50;16.10;97413.00;;;;5022998;28;20580;-83
2022/10/18 06:26:54;;;;;;;2.53;2.33;;;15.70;78.80;16.20;97420.00;;;;5020363;28;20193;-83
2022/10/18 06:29:21;;;;;;;4.53;2.30;;;15.70;78.80;16.20;97420.00;;;;5023385;28;20231;-82
2022/10/18 06:31:49;;;;;;;2.33;2.13;;;15.80;78.90;16.30;97419.00;;;;5022080;28;20297;-83
2022/10/18 06:34:17;;;;;;;3.23;2.50;;;15.80;78.90;16.40;97412.00;;;;5021103;28;20272;-83
2022/10/18 06:36:44;;;;;;;2.73;2.33;;;15.90;79.00;16.40;97415.00;;;;5023514;28;20265;-83
2022/10/18 06:39:11;;;;;;;3.33;2.40;;;15.90;78.90;16.50;97407.00;;;;5021903;28;20213;-82
2022/10/18 06:41:38;;;;;;;2.83;2.43;;;16.00;79.00;16.60;97413.00;;;;5025886;28;20801;-83
2022/10/18 06:44:12;;;;;;;2.63;2.33;;;16.10;79.00;16.60;97415.00;;;;5021294;28;20226;-83
2022/10/18 06:46:39;;;;;;;5.33;2.33;;;16.10;79.00;16.70;97421.00;;;;5020648;28;20194;-82
2022/10/18 06:49:06;;;;;;;2.50;2.30;;;16.20;78.90;16.70;97414.00;;;;5024104;28;20267;-83
2022/10/18 06:51:35;;;;;;;2.57;2.07;;;16.20;78.80;16.80;97411.00;;;;5021180;28;20202;-82
2022/10/18 06:54:02;;;;;;;2.83;2.50;;;16.30;78.90;16.80;97414.00;;;;5023628;28;20239;-82
2022/10/18 06:56:30;;;;;;;2.50;2.30;;;16.30;79.70;16.90;97429.00;;;;5022957;28;20293;-82
2022/10/18 06:58:57;;;;;;;2.20;2.00;;;16.40;79.10;16.90;97439.00;;;;5020843;28;20288;-82
2022/10/18 07:01:24;;;;;;;2.83;2.30;;;16.40;79.10;17.00;97433.00;;;;5025167;28;20284;-82
2022/10/18 07:03:54;;;;;;;2.90;2.63;;;16.50;80.00;17.00;97430.00;;;;5028406;28;20225;-83
2022/10/18 07:06:22;;;;;;;2.40;2.10;;;16.50;79.40;17.10;97430.00;;;;5030493;28;20675;-82
2022/10/18 07:08:53;;;;;;;4.07;2.33;;;16.60;79.50;17.10;97450.00;;;;5034382;28;20320;-82
2022/10/18 07:11:24;;;;;;;2.33;2.13;;;16.60;79.50;17.20;97444.00;;;;5024846;28;20201;-83
2022/10/18 07:13:52;;;;;;;2.50;2.30;;;16.70;79.40;17.20;97440.00;;;;5025765;28;20233;-83
2022/10/18 07:16:20;;;;;;;3.03;2.37;;;16.70;79.40;17.30;97438.00;;;;5026022;28;20201;-82
2022/10/18 07:18:50;;;;;;;2.77;2.57;;;16.70;79.40;17.30;97434.00;;;;5026938;28;20292;-82
2022/10/18 07:21:19;;;;;;;2.20;2.00;;;16.80;79.40;17.40;97441.00;;;;5024460;28;20236;-82
2022/10/18 07:23:47;;;;;;;3.23;1.80;;;16.80;79.90;17.40;97453.00;;;;5024589;28;20234;-82
2022/10/18 07:26:18;;;;;;;2.37;2.17;;;16.90;79.20;17.50;97466.00;;;;5031195;28;20205;-83
2022/10/18 07:28:50;;;;;;;2.20;2.07;;;16.90;79.20;17.50;97464.00;;;;5027375;28;20653;-82
2022/10/18 07:31:17;;;;;;;3.60;2.20;;;17.00;79.30;17.50;97461.00;;;;5030168;28;20614;-83
2022/10/18 07:33:44;;;;;;;2.67;2.07;;;17.00;79.20;17.60;97460.00;;;;5025324;28;20612;-83
2022/10/18 07:36:13;;;;;;;2.37;2.20;;;17.10;79.30;17.60;97458.00;;;;5028999;28;20567;-83
2022/10/18 07:38:41;;;;;;;2.60;2.40;;;17.10;79.30;17.70;97465.00;;;;5025358;28;20207;-83
2022/10/18 07:41:11;;;;;;;3.50;2.47;;;17.20;79.40;17.70;97462.00;;;;5026463;28;20293;-83
2022/10/18 07:43:44;;;;;;;2.40;2.30;;;17.20;79.30;17.80;97460.00;;;;5025185;28;20737;-83
2022/10/18 07:46:12;;;;;;;3.37;2.43;;;17.30;79.30;17.90;97454.00;;;;5027590;28;20730;-83
2022/10/18 07:48:40;;;;;;;3.27;2.47;;;17.30;79.20;17.90;97456.00;;;;5029219;28;20197;-83
2022/10/18 07:51:07;;;;;;;2.50;2.30;;;17.40;79.10;18.00;97463.00;;;;5027689;28;20234;-83
2022/10/18 07:53:34;;;;;;;2.93;2.10;;;17.40;79.10;18.00;97453.00;;;;5027413;28;20233;-83
2022/10/18 07:56:03;;;;;;;3.33;2.30;;;17.40;79.10;18.10;97455.00;;;;5021768;28;20201;-83
2022/10/18 07:58:32;;;;;;;3.63;2.60;;;17.50;79.10;18.10;97447.00;;;;5028805;28;20205;-83
2022/10/18 08:01:04;;;;;;;2.90;2.60;;;17.60;79.10;18.20;97443.00;;;;5025773;28;20240;-83
2022/10/18 08:03:31;;;;;;;2.63;2.13;;;17.60;79.30;18.30;97457.00;;;;5022394;28;20224;-83
2022/10/18 08:05:58;;;;;;;2.43;2.23;;;17.70;79.20;18.30;97455.00;;;;5024696;28;20732;-83
2022/10/18 08:08:26;;;;;;;3.10;2.53;;;17.70;79.00;18.40;97457.00;;;;5027673;28;20212;-83
2022/10/18 08:10:53;;;;;;;5.03;2.30;;;17.80;79.10;18.40;97461.00;;;;5021193;28;20200;-83
2022/10/18 08:13:20;;;;;;;2.50;2.30;;;17.80;79.00;18.50;97466.00;;;;5026669;28;20233;-83
2022/10/18 08:15:48;;;;;;;2.70;2.50;;;17.90;79.00;18.50;97456.00;;;;5027225;28;20206;-83
2022/10/18 08:18:16;;;;;;;2.83;2.57;;;17.90;79.00;18.50;97458.00;;;;5022904;28;20194;-82
2022/10/18 08:20:44;;;;;;;2.10;1.97;;;18.00;78.80;18.60;97449.00;;;;5026012;28;20650;-83
2022/10/18 08:23:12;;;;;;;2.67;2.00;;;18.00;78.70;18.60;97450.00;;;;5027370;28;20245;-83
2022/10/18 08:25:39;;;;;;;2.70;2.30;;;18.10;78.70;18.60;97454.00;;;;5026483;28;20202;-83
2022/10/18 08:28:07;;;;;;;2.83;2.37;;;18.10;78.70;18.70;97448.00;;;;5023895;28;20229;-83
2022/10/18 08:30:35;;;;;;;3.03;2.67;;;18.20;78.80;18.80;97451.00;;;;5020998;28;20214;-83
2022/10/18 08:33:02;;;;;;;3.37;2.47;;;18.20;78.80;18.90;97450.00;;;;5025475;28;20247;-83
2022/10/18 08:35:31;;;;;;;2.43;2.23;;;18.30;78.90;19.00;97452.00;;;;5024676;28;20202;-83
2022/10/18 08:37:59;;;;;;;2.60;2.20;;;18.40;79.10;19.10;97463.00;;;;5021652;28;20204;-83
2022/10/18 08:40:26;;;;;;;2.80;2.33;;;18.40;79.80;19.20;97461.00;;;;5023472;28;20208;-83
2022/10/18 08:43:08;;;;;;;2.50;2.30;;;18.50;79.10;19.20;97465.00;;;;5024800;28;20229;-83
2022/10/18 08:45:40;;;;;;;3.50;2.30;;;18.60;79.70;19.30;97462.00;;;;5026328;28;20241;-83
2022/10/18 08:48:20;;;;;;;2.53;2.33;;;18.70;79.00;19.40;97455.00;;;;5025741;28;20204;-82
2022/10/18 08:50:51;;;;;;;2.53;2.33;;;18.70;78.80;19.50;97451.00;;;;5026786;28;20213;-83
2022/10/18 08:53:28;;;;;;;2.40;2.13;;;18.80;78.90;19.50;97459.00;;;;5024803;28;20229;-83
2022/10/18 08:56:03;;;;;;;2.43;2.27;;;18.90;78.90;19.70;97466.00;;;;5023350;28;20284;-83
2022/10/18 08:58:32;;;;;;;2.40;2.20;;;19.00;78.90;19.80;97471.00;;;;5024492;28;20288;-83
2022/10/18 09:01:16;;;;;;;2.83;2.33;;;19.00;79.00;19.90;97461.00;;;;5026775;28;20297;-83
2022/10/18 09:04:22;;;;;;;3.17;2.40;;;19.20;79.10;20.00;97459.00;;;;5021730;28;20718;-83
2022/10/18 09:07:14;;;;;;;2.60;2.40;;;19.30;79.10;20.20;97468.00;;;;5014252;28;20293;-82
2022/10/18 09:09:53;;;;;;;2.70;2.50;;;19.40;78.90;20.30;97476.00;;;;5023258;28;20204;-82
2022/10/18 09:12:47;;;;;;;2.27;2.07;;;19.50;78.90;20.50;97470.00;;;;5025951;28;20195;-82
2022/10/18 09:15:20;;;;;;;2.20;1.90;;;19.60;78.90;20.60;97473.00;;;;5028156;28;20581;-82
2022/10/18 09:18:13;;;;;;;5.20;2.20;;;19.80;79.50;20.80;97465.00;;;;5023949;28;20570;-83
2022/10/18 09:20:53;;;;;;;2.50;2.10;;;19.90;78.50;21.00;97469.00;;;;5021392;28;20198;-83
2022/10/18 09:23:31;;;;;;;2.93;2.13;;;20.10;78.20;21.20;97474.00;;;;5025509;28;20243;-83
2022/10/18 09:26:07;;;;;;;2.17;2.00;;;20.20;78.30;21.30;97468.00;;;;5023486;28;20738;-83
2022/10/18 09:28:57;;;;;;;2.83;2.50;;;20.40;78.60;21.50;97461.00;;;;5022719;28;20265;-83
2022/10/18 09:31:34;;;;;;;5.03;2.50;;;20.60;78.20;21.70;97467.00;;;;5030967;28;20283;-83
2022/10/18 09:34:09;;;;;;;2.57;2.37;;;20.70;78.90;21.90;97466.00;;;;5020305;28;20655;-82
2022/10/18 09:36:38;;;;;;;2.67;2.30;;;20.90;78.40;22.00;97461.00;;;;5027550;28;20193;-83
2022/10/18 09:39:14;;;;;;;2.33;2.17;;;21.10;78.40;22.20;97465.00;;;;5026555;28;20272;-83
2022/10/18 09:41:50;;;;;;;2.70;2.50;;;21.30;78.20;22.30;97452.00;;;;5028282;28;20288;-83
2022/10/18 09:44:23;;;;;;;2.40;2.00;;;21.40;78.20;22.50;97459.00;;;;5028944;28;20225;-83
2022/10/18 09:46:56;;;;;;;2.43;2.23;;;21.60;78.00;22.60;97454.00;;;;5026724;28;20209;-83
2022/10/18 09:49:29;;;;;;;2.67;1.73;;;21.80;78.10;22.80;97453.00;;;;5027086;28;20202;-83
2022/10/18 09:52:15;;;;;;;2.40;2.20;;;21.90;77.80;23.00;97449.00;;;;5152713;27;20576;-81
2022/10/18 09:54:49;;;;;;;2.30;2.10;;;22.20;77.80;23.20;97458.00;;;;5116974;22;20224;-82
2022/10/18 09:57:26;;;;;;;4.37;2.37;;;22.40;77.10;23.40;97453.00;;;;5053196;28;20612;-82
2022/10/18 09:59:53;;;;;;;2.27;2.00;;;22.60;76.40;23.60;97459.00;;;;5046420;28;20622;-82
2022/10/18 10:02:23;;;;;;;2.47;2.27;;;22.80;76.40;23.80;97465.00;;;;5049930;28;20228;-82
2022/10/18 10:04:55;;;;;;;4.63;2.40;;;23.00;76.10;24.00;97466.00;;;;5066131;28;20215;-82
2022/10/18 10:07:28;;;;;;;3.10;2.10;;;23.20;75.70;24.10;97461.00;;;;5068958;28;20207;-83
2022/10/18 10:10:04;;;;;;;3.60;2.20;;;23.40;74.70;24.30;97465.00;;;;5069205;28;20238;-82
2022/10/18 10:12:34;;;;;;;2.50;2.07;;;23.60;73.50;24.30;97454.00;;;;5069002;28;20635;-82
2022/10/18 10:15:18;;;;;;;3.57;2.23;;;23.70;72.90;24.30;97458.00;;;;5065434;28;20210;-82
2022/10/18 10:17:55;;;;;;;3.53;2.40;;;23.80;71.90;24.40;97449.00;;;;5069110;28;20249;-82
2022/10/18 10:20:33;;;;;;;3.10;2.20;;;23.80;71.80;24.50;97447.00;;;;5069561;28;20231;-82
2022/10/18 10:23:13;;;;;;;2.43;2.23;;;23.90;71.80;24.60;97443.00;;;;5065002;28;20215;-82
2022/10/18 10:25:42;;;;;;;3.60;2.40;;;24.00;71.40;24.70;97444.00;;;;5068378;28;20246;-83
2022/10/18 10:28:23;;;;;;;2.27;2.17;;;24.10;72.10;24.80;97443.00;;;;5068767;28;20655;-82
2022/10/18 10:30:51;;;;;;;2.40;2.23;;;24.20;71.30;24.90;97435.00;;;;5069374;28;20222;-82
2022/10/18 10:33:37;;;;;;;2.30;2.00;;;24.30;71.80;25.00;97429.00;;;;5065196;28;20251;-82
2022/10/18 10:36:16;;;;;;;2.60;2.40;;;24.40;70.20;25.00;97431.00;;;;5066774;28;20199;-83
2022/10/18 10:38:45;;;;;;;2.70;2.50;;;24.50;70.60;25.00;97426.00;;;;5064154;28;20230;-82
2022/10/18 10:41:22;;;;;;;2.60;2.20;;;24.50;69.50;25.00;97429.00;;;;5066344;28;20199;-82
2022/10/18 10:43:51;;;;;;;2.90;2.37;;;24.50;68.80;25.00;97422.00;;;;5059962;28;20250;-82
2022/10/18 10:46:22;;;;;;;2.50;2.30;;;24.50;69.10;25.00;97419.00;;;;5067126;28;20221;-82
2022/10/18 10:48:54;;;;;;;2.57;2.17;;;24.50;68.60;24.90;97429.00;;;;5068884;28;20197;-87
2022/10/18 10:51:32;;;;;;;2.13;2.03;;;24.50;68.40;24.90;97428.00;;;;5064033;28;20213;-87
2022/10/18 10:54:07;;;;;;;3.53;2.23;;;24.50;68.60;24.90;97435.00;;;;5065545;28;20589;-87
2022/10/18 10:56:38;;;;;;;2.87;2.20;;;24.50;68.80;24.90;97432.00;;;;5068505;28;20254;-87
2022/10/18 10:59:15;;;;;;;2.00;1.90;;;24.40;68.20;24.90;97428.00;;;;5068301;28;20207;-87
2022/10/18 11:01:44;;;;;;;2.20;2.00;;;24.40;68.00;24.90;97424.00;;;;5061440;28;20935;-87
2022/10/18 11:04:28;;;;;;;2.70;2.13;;;24.40;68.50;24.90;97419.00;;;;5054799;28;20196;-88
2022/10/18 11:07:06;;;;;;;2.00;1.70;;;24.40;68.10;24.90;97417.00;;;;5053317;28;20227;-87
2022/10/18 11:10:01;;;;;;;2.00;1.80;;;24.40;68.20;24.90;97413.00;;;;5054701;28;20200;-87
2022/10/18 11:12:34;;;;;;;2.10;1.70;;;24.40;68.00;24.90;97417.00;;;;5051518;28;20240;-86
2022/10/18 11:15:18;;;;;;;2.07;1.97;;;24.40;67.80;24.80;97414.00;;;;5054731;28;20229;-87
2022/10/18 11:18:00;;;;;;;2.60;2.40;;;24.40;67.40;24.90;97415.00;;;;5054997;28;20204;-87